Terminal Aerodrome Forecast
Issued by NWS

Home | Current Version | Previous Version | Text Only | Print | Product List | Glossary On
Versions: 1 2 3 4 5 6 7 8 9 10 11 12 13 14
000
FTUS45 KSLC 140548
TAFEVW
TAF
KEVW 140548Z 1406/1506 35012KT 6SM -SHSN BKN012 OVC030
     FM140800 01007KT 6SM BR BKN030
     FM141500 22008KT P6SM SKC
     FM141900 26010KT P6SM SKC
     FM150300 22007KT P6SM SCT030 SCT070=

USA.gov is the U.S. government's official web portal to all federal, state and local government web resources and services.